sensor_id;sensor_type;location;lat;lon;timestamp;P1;durP1;ratioP1;P2;durP2;ratioP2
23747;SDS011;12054;53.662;10.126;2024-01-06T00:00:53;4.93;;;2.97;;
23747;SDS011;12054;53.662;10.126;2024-01-06T00:03:19;7.05;;;3.35;;
23747;SDS011;12054;53.662;10.126;2024-01-06T00:05:44;5.90;;;3.45;;
23747;SDS011;12054;53.662;10.126;2024-01-06T00:08:10;3.20;;;2.42;;
23747;SDS011;12054;53.662;10.126;2024-01-06T00:10:35;5.75;;;3.53;;
23747;SDS011;12054;53.662;10.126;2024-01-06T00:13:01;8.10;;;4.38;;
23747;SDS011;12054;53.662;10.126;2024-01-06T00:15:26;6.95;;;3.92;;
23747;SDS011;12054;53.662;10.126;2024-01-06T00:17:52;6.25;;;4.10;;
23747;SDS011;12054;53.662;10.126;2024-01-06T00:20:17;6.30;;;3.83;;
23747;SDS011;12054;53.662;10.126;2024-01-06T00:22:43;7.18;;;4.32;;
23747;SDS011;12054;53.662;10.126;2024-01-06T00:25:09;6.65;;;3.95;;
23747;SDS011;12054;53.662;10.126;2024-01-06T00:27:34;6.95;;;4.60;;
23747;SDS011;12054;53.662;10.126;2024-01-06T00:30:00;5.45;;;2.92;;
23747;SDS011;12054;53.662;10.126;2024-01-06T00:32:25;7.03;;;4.03;;
23747;SDS011;12054;53.662;10.126;2024-01-06T00:34:51;6.20;;;3.03;;
23747;SDS011;12054;53.662;10.126;2024-01-06T00:37:16;5.72;;;4.07;;
23747;SDS011;12054;53.662;10.126;2024-01-06T00:39:42;5.28;;;3.85;;
23747;SDS011;12054;53.662;10.126;2024-01-06T00:42:07;7.15;;;3.60;;
23747;SDS011;12054;53.662;10.126;2024-01-06T00:44:34;6.45;;;3.80;;
23747;SDS011;12054;53.662;10.126;2024-01-06T00:47:01;6.80;;;3.92;;
23747;SDS011;12054;53.662;10.126;2024-01-06T00:49:26;7.10;;;4.50;;
23747;SDS011;12054;53.662;10.126;2024-01-06T00:51:52;6.32;;;4.20;;
23747;SDS011;12054;53.662;10.126;2024-01-06T00:54:17;8.15;;;4.78;;
23747;SDS011;12054;53.662;10.126;2024-01-06T00:56:43;7.45;;;3.83;;
23747;SDS011;12054;53.662;10.126;2024-01-06T00:59:08;7.97;;;4.50;;
23747;SDS011;12054;53.662;10.126;2024-01-06T01:01:34;6.10;;;3.75;;
23747;SDS011;12054;53.662;10.126;2024-01-06T01:03:59;6.25;;;4.22;;
23747;SDS011;12054;53.662;10.126;2024-01-06T01:06:25;5.82;;;4.10;;
23747;SDS011;12054;53.662;10.126;2024-01-06T01:08:50;7.07;;;4.43;;
23747;SDS011;12054;53.662;10.126;2024-01-06T01:11:16;7.90;;;4.63;;
23747;SDS011;12054;53.662;10.126;2024-01-06T01:13:41;7.10;;;4.32;;
23747;SDS011;12054;53.662;10.126;2024-01-06T01:16:07;7.10;;;4.35;;
23747;SDS011;12054;53.662;10.126;2024-01-06T01:18:32;8.55;;;4.88;;
23747;SDS011;12054;53.662;10.126;2024-01-06T01:20:58;9.05;;;4.95;;
23747;SDS011;12054;53.662;10.126;2024-01-06T01:23:23;8.63;;;4.78;;
23747;SDS011;12054;53.662;10.126;2024-01-06T01:25:49;7.05;;;3.95;;
23747;SDS011;12054;53.662;10.126;2024-01-06T01:28:14;5.47;;;3.47;;
23747;SDS011;12054;53.662;10.126;2024-01-06T01:30:40;7.35;;;4.68;;
23747;SDS011;12054;53.662;10.126;2024-01-06T01:33:05;8.68;;;5.13;;
23747;SDS011;12054;53.662;10.126;2024-01-06T01:35:32;9.82;;;5.28;;
23747;SDS011;12054;53.662;10.126;2024-01-06T01:37:57;7.68;;;4.43;;
23747;SDS011;12054;53.662;10.126;2024-01-06T01:40:23;8.63;;;5.00;;
23747;SDS011;12054;53.662;10.126;2024-01-06T01:42:48;9.15;;;4.97;;
23747;SDS011;12054;53.662;10.126;2024-01-06T01:45:14;7.53;;;5.13;;
23747;SDS011;12054;53.662;10.126;2024-01-06T01:47:39;7.43;;;5.03;;
23747;SDS011;12054;53.662;10.126;2024-01-06T01:50:05;8.43;;;4.95;;
23747;SDS011;12054;53.662;10.126;2024-01-06T01:52:32;9.50;;;5.45;;
23747;SDS011;12054;53.662;10.126;2024-01-06T01:54:58;9.75;;;5.43;;
23747;SDS011;12054;53.662;10.126;2024-01-06T01:57:24;8.32;;;5.15;;
23747;SDS011;12054;53.662;10.126;2024-01-06T01:59:51;8.88;;;5.47;;
23747;SDS011;12054;53.662;10.126;2024-01-06T02:02:18;9.57;;;5.15;;
23747;SDS011;12054;53.662;10.126;2024-01-06T02:04:44;9.88;;;6.30;;
23747;SDS011;12054;53.662;10.126;2024-01-06T02:07:10;11.65;;;5.57;;
23747;SDS011;12054;53.662;10.126;2024-01-06T02:09:36;8.98;;;5.35;;
23747;SDS011;12054;53.662;10.126;2024-01-06T02:12:01;10.15;;;5.72;;
23747;SDS011;12054;53.662;10.126;2024-01-06T02:14:27;8.98;;;4.80;;
23747;SDS011;12054;53.662;10.126;2024-01-06T02:16:53;10.32;;;5.78;;
23747;SDS011;12054;53.662;10.126;2024-01-06T02:19:18;9.88;;;6.00;;
23747;SDS011;12054;53.662;10.126;2024-01-06T02:21:47;11.15;;;6.55;;
23747;SDS011;12054;53.662;10.126;2024-01-06T02:24:14;10.85;;;6.10;;
23747;SDS011;12054;53.662;10.126;2024-01-06T02:26:39;11.55;;;6.05;;
23747;SDS011;12054;53.662;10.126;2024-01-06T02:29:05;9.80;;;4.68;;
23747;SDS011;12054;53.662;10.126;2024-01-06T02:31:30;8.40;;;4.60;;
23747;SDS011;12054;53.662;10.126;2024-01-06T02:33:56;12.30;;;6.65;;
23747;SDS011;12054;53.662;10.126;2024-01-06T02:36:21;11.02;;;6.78;;
23747;SDS011;12054;53.662;10.126;2024-01-06T02:38:46;9.13;;;5.43;;
23747;SDS011;12054;53.662;10.126;2024-01-06T02:41:12;10.27;;;6.50;;
23747;SDS011;12054;53.662;10.126;2024-01-06T02:43:37;10.65;;;7.05;;
23747;SDS011;12054;53.662;10.126;2024-01-06T02:46:03;9.15;;;5.72;;
23747;SDS011;12054;53.662;10.126;2024-01-06T02:48:28;10.52;;;5.95;;
23747;SDS011;12054;53.662;10.126;2024-01-06T02:50:55;9.10;;;5.55;;
23747;SDS011;12054;53.662;10.126;2024-01-06T02:53:21;11.30;;;7.07;;
23747;SDS011;12054;53.662;10.126;2024-01-06T02:55:47;11.45;;;6.65;;
23747;SDS011;12054;53.662;10.126;2024-01-06T02:58:12;9.88;;;6.00;;
23747;SDS011;12054;53.662;10.126;2024-01-06T03:00:38;10.40;;;5.50;;
23747;SDS011;12054;53.662;10.126;2024-01-06T03:03:03;10.43;;;5.50;;
23747;SDS011;12054;53.662;10.126;2024-01-06T03:05:29;11.75;;;6.72;;
23747;SDS011;12054;53.662;10.126;2024-01-06T03:07:54;11.50;;;6.75;;
23747;SDS011;12054;53.662;10.126;2024-01-06T03:10:20;13.85;;;7.30;;
23747;SDS011;12054;53.662;10.126;2024-01-06T03:12:45;9.30;;;5.82;;
23747;SDS011;12054;53.662;10.126;2024-01-06T03:15:11;9.27;;;5.60;;
23747;SDS011;12054;53.662;10.126;2024-01-06T03:17:36;9.77;;;6.05;;
23747;SDS011;12054;53.662;10.126;2024-01-06T03:20:02;10.45;;;6.28;;
23747;SDS011;12054;53.662;10.126;2024-01-06T03:22:29;9.35;;;5.82;;
23747;SDS011;12054;53.662;10.126;2024-01-06T03:24:54;9.82;;;6.00;;
23747;SDS011;12054;53.662;10.126;2024-01-06T03:27:20;10.68;;;7.13;;
23747;SDS011;12054;53.662;10.126;2024-01-06T03:29:45;12.18;;;6.85;;
23747;SDS011;12054;53.662;10.126;2024-01-06T03:32:11;9.00;;;5.32;;
23747;SDS011;12054;53.662;10.126;2024-01-06T03:34:37;11.15;;;6.32;;
23747;SDS011;12054;53.662;10.126;2024-01-06T03:37:02;10.85;;;6.57;;
23747;SDS011;12054;53.662;10.126;2024-01-06T03:39:28;8.57;;;5.43;;
23747;SDS011;12054;53.662;10.126;2024-01-06T03:41:53;11.40;;;6.55;;
23747;SDS011;12054;53.662;10.126;2024-01-06T03:44:19;10.50;;;6.63;;
23747;SDS011;12054;53.662;10.126;2024-01-06T03:46:44;11.27;;;7.13;;
23747;SDS011;12054;53.662;10.126;2024-01-06T03:49:10;7.50;;;5.05;;
23747;SDS011;12054;53.662;10.126;2024-01-06T03:51:35;8.18;;;4.70;;
23747;SDS011;12054;53.662;10.126;2024-01-06T03:54:01;9.35;;;5.93;;
23747;SDS011;12054;53.662;10.126;2024-01-06T03:56:26;9.65;;;5.35;;
23747;SDS011;12054;53.662;10.126;2024-01-06T03:58:52;9.50;;;5.60;;
23747;SDS011;12054;53.662;10.126;2024-01-06T04:01:17;8.98;;;6.05;;
23747;SDS011;12054;53.662;10.126;2024-01-06T04:03:43;10.45;;;5.72;;
23747;SDS011;12054;53.662;10.126;2024-01-06T04:06:08;10.05;;;6.15;;
23747;SDS011;12054;53.662;10.126;2024-01-06T04:08:35;9.82;;;5.88;;
23747;SDS011;12054;53.662;10.126;2024-01-06T04:11:01;10.05;;;5.60;;
23747;SDS011;12054;53.662;10.126;2024-01-06T04:13:27;10.35;;;6.53;;
23747;SDS011;12054;53.662;10.126;2024-01-06T04:15:53;11.82;;;6.55;;
23747;SDS011;12054;53.662;10.126;2024-01-06T04:18:18;11.55;;;7.10;;
23747;SDS011;12054;53.662;10.126;2024-01-06T04:20:44;12.40;;;6.40;;
23747;SDS011;12054;53.662;10.126;2024-01-06T04:23:09;12.15;;;6.47;;
23747;SDS011;12054;53.662;10.126;2024-01-06T04:25:35;9.75;;;6.32;;
23747;SDS011;12054;53.662;10.126;2024-01-06T04:28:00;14.65;;;7.57;;
23747;SDS011;12054;53.662;10.126;2024-01-06T04:30:26;9.32;;;5.20;;
23747;SDS011;12054;53.662;10.126;2024-01-06T04:32:51;12.18;;;6.70;;
23747;SDS011;12054;53.662;10.126;2024-01-06T04:35:17;10.38;;;6.70;;
23747;SDS011;12054;53.662;10.126;2024-01-06T04:37:45;9.57;;;6.22;;
23747;SDS011;12054;53.662;10.126;2024-01-06T04:40:10;11.82;;;6.20;;
23747;SDS011;12054;53.662;10.126;2024-01-06T04:42:36;11.93;;;7.00;;
23747;SDS011;12054;53.662;10.126;2024-01-06T04:45:02;11.77;;;5.90;;
23747;SDS011;12054;53.662;10.126;2024-01-06T04:47:28;11.35;;;5.43;;
23747;SDS011;12054;53.662;10.126;2024-01-06T04:49:55;12.38;;;7.30;;
23747;SDS011;12054;53.662;10.126;2024-01-06T04:52:21;11.13;;;6.15;;
23747;SDS011;12054;53.662;10.126;2024-01-06T04:54:47;11.93;;;6.88;;
23747;SDS011;12054;53.662;10.126;2024-01-06T04:57:12;9.68;;;5.95;;
23747;SDS011;12054;53.662;10.126;2024-01-06T04:59:37;14.20;;;7.57;;
23747;SDS011;12054;53.662;10.126;2024-01-06T05:02:03;10.00;;;7.05;;
23747;SDS011;12054;53.662;10.126;2024-01-06T05:04:29;12.23;;;7.05;;
23747;SDS011;12054;53.662;10.126;2024-01-06T05:06:57;9.18;;;5.95;;
23747;SDS011;12054;53.662;10.126;2024-01-06T05:09:22;13.48;;;6.65;;
23747;SDS011;12054;53.662;10.126;2024-01-06T05:11:48;12.45;;;7.25;;
23747;SDS011;12054;53.662;10.126;2024-01-06T05:14:13;6.07;;;3.35;;
23747;SDS011;12054;53.662;10.126;2024-01-06T05:16:39;11.10;;;7.25;;
23747;SDS011;12054;53.662;10.126;2024-01-06T05:19:05;10.13;;;6.25;;
23747;SDS011;12054;53.662;10.126;2024-01-06T05:21:30;9.13;;;5.57;;
23747;SDS011;12054;53.662;10.126;2024-01-06T05:23:56;11.85;;;6.70;;
23747;SDS011;12054;53.662;10.126;2024-01-06T05:26:21;11.13;;;6.88;;
23747;SDS011;12054;53.662;10.126;2024-01-06T05:28:47;12.93;;;6.82;;
23747;SDS011;12054;53.662;10.126;2024-01-06T05:31:13;12.48;;;7.30;;
23747;SDS011;12054;53.662;10.126;2024-01-06T05:33:38;11.95;;;6.13;;
23747;SDS011;12054;53.662;10.126;2024-01-06T05:36:04;9.43;;;5.68;;
23747;SDS011;12054;53.662;10.126;2024-01-06T05:38:29;14.68;;;7.65;;
23747;SDS011;12054;53.662;10.126;2024-01-06T05:40:55;11.00;;;5.60;;
23747;SDS011;12054;53.662;10.126;2024-01-06T05:43:21;11.25;;;6.30;;
23747;SDS011;12054;53.662;10.126;2024-01-06T05:45:46;13.98;;;8.18;;
23747;SDS011;12054;53.662;10.126;2024-01-06T05:48:12;12.13;;;6.72;;
23747;SDS011;12054;53.662;10.126;2024-01-06T05:50:38;12.50;;;7.88;;
23747;SDS011;12054;53.662;10.126;2024-01-06T05:53:04;10.23;;;5.43;;
23747;SDS011;12054;53.662;10.126;2024-01-06T05:55:30;10.82;;;7.22;;
23747;SDS011;12054;53.662;10.126;2024-01-06T05:57:56;14.00;;;7.85;;
23747;SDS011;12054;53.662;10.126;2024-01-06T06:00:21;15.43;;;8.25;;
23747;SDS011;12054;53.662;10.126;2024-01-06T06:02:47;12.38;;;6.65;;
23747;SDS011;12054;53.662;10.126;2024-01-06T06:05:12;13.57;;;6.95;;
23747;SDS011;12054;53.662;10.126;2024-01-06T06:07:38;11.90;;;6.90;;
23747;SDS011;12054;53.662;10.126;2024-01-06T06:10:08;13.68;;;7.63;;
23747;SDS011;12054;53.662;10.126;2024-01-06T06:12:34;11.35;;;6.43;;
23747;SDS011;12054;53.662;10.126;2024-01-06T06:15:00;12.88;;;7.18;;
23747;SDS011;12054;53.662;10.126;2024-01-06T06:17:27;14.48;;;7.72;;
23747;SDS011;12054;53.662;10.126;2024-01-06T06:19:52;11.70;;;7.68;;
23747;SDS011;12054;53.662;10.126;2024-01-06T06:22:17;13.32;;;8.15;;
23747;SDS011;12054;53.662;10.126;2024-01-06T06:24:44;13.65;;;8.30;;
23747;SDS011;12054;53.662;10.126;2024-01-06T06:27:09;15.35;;;8.60;;
23747;SDS011;12054;53.662;10.126;2024-01-06T06:29:35;12.07;;;6.43;;
23747;SDS011;12054;53.662;10.126;2024-01-06T06:32:00;9.43;;;5.03;;
23747;SDS011;12054;53.662;10.126;2024-01-06T06:34:26;12.10;;;7.43;;
23747;SDS011;12054;53.662;10.126;2024-01-06T06:36:51;16.00;;;7.45;;
23747;SDS011;12054;53.662;10.126;2024-01-06T06:39:17;12.70;;;7.07;;
23747;SDS011;12054;53.662;10.126;2024-01-06T06:41:43;9.80;;;5.95;;
23747;SDS011;12054;53.662;10.126;2024-01-06T06:44:09;12.23;;;6.82;;
23747;SDS011;12054;53.662;10.126;2024-01-06T06:46:35;12.50;;;7.00;;
23747;SDS011;12054;53.662;10.126;2024-01-06T06:49:01;14.00;;;8.07;;
23747;SDS011;12054;53.662;10.126;2024-01-06T06:51:27;13.25;;;7.72;;
23747;SDS011;12054;53.662;10.126;2024-01-06T06:53:53;12.57;;;7.93;;
23747;SDS011;12054;53.662;10.126;2024-01-06T06:56:19;14.00;;;8.02;;
23747;SDS011;12054;53.662;10.126;2024-01-06T06:58:45;12.05;;;7.63;;
23747;SDS011;12054;53.662;10.126;2024-01-06T07:01:13;12.50;;;7.50;;
23747;SDS011;12054;53.662;10.126;2024-01-06T07:03:39;12.57;;;5.93;;
23747;SDS011;12054;53.662;10.126;2024-01-06T07:06:05;14.95;;;7.70;;
23747;SDS011;12054;53.662;10.126;2024-01-06T07:08:30;13.60;;;7.03;;
23747;SDS011;12054;53.662;10.126;2024-01-06T07:10:56;13.15;;;7.75;;
23747;SDS011;12054;53.662;10.126;2024-01-06T07:13:21;13.23;;;8.15;;
23747;SDS011;12054;53.662;10.126;2024-01-06T07:15:47;11.85;;;7.20;;
23747;SDS011;12054;53.662;10.126;2024-01-06T07:18:12;13.05;;;7.53;;
23747;SDS011;12054;53.662;10.126;2024-01-06T07:20:38;12.75;;;6.85;;
23747;SDS011;12054;53.662;10.126;2024-01-06T07:23:04;13.32;;;7.10;;
23747;SDS011;12054;53.662;10.126;2024-01-06T07:25:29;14.07;;;7.18;;
23747;SDS011;12054;53.662;10.126;2024-01-06T07:27:55;11.93;;;6.50;;
23747;SDS011;12054;53.662;10.126;2024-01-06T07:30:21;15.75;;;7.45;;
23747;SDS011;12054;53.662;10.126;2024-01-06T07:32:46;13.25;;;7.18;;
23747;SDS011;12054;53.662;10.126;2024-01-06T07:35:14;11.20;;;6.60;;
23747;SDS011;12054;53.662;10.126;2024-01-06T07:37:41;12.10;;;6.15;;
23747;SDS011;12054;53.662;10.126;2024-01-06T07:40:06;10.00;;;5.90;;
23747;SDS011;12054;53.662;10.126;2024-01-06T07:42:32;13.15;;;6.50;;
23747;SDS011;12054;53.662;10.126;2024-01-06T07:44:58;13.68;;;7.55;;
23747;SDS011;12054;53.662;10.126;2024-01-06T07:47:23;12.52;;;5.95;;
23747;SDS011;12054;53.662;10.126;2024-01-06T07:49:49;7.80;;;4.50;;
23747;SDS011;12054;53.662;10.126;2024-01-06T07:52:15;8.35;;;4.28;;
23747;SDS011;12054;53.662;10.126;2024-01-06T07:54:40;13.38;;;6.35;;
23747;SDS011;12054;53.662;10.126;2024-01-06T07:57:06;6.38;;;4.05;;
23747;SDS011;12054;53.662;10.126;2024-01-06T07:59:31;11.82;;;7.22;;
23747;SDS011;12054;53.662;10.126;2024-01-06T08:01:57;14.50;;;7.00;;
23747;SDS011;12054;53.662;10.126;2024-01-06T08:04:23;10.00;;;5.38;;
23747;SDS011;12054;53.662;10.126;2024-01-06T08:06:48;18.02;;;6.97;;
23747;SDS011;12054;53.662;10.126;2024-01-06T08:09:14;12.73;;;6.22;;
23747;SDS011;12054;53.662;10.126;2024-01-06T08:11:39;11.57;;;6.13;;
23747;SDS011;12054;53.662;10.126;2024-01-06T08:14:05;10.40;;;5.65;;
23747;SDS011;12054;53.662;10.126;2024-01-06T08:16:30;11.48;;;6.45;;
23747;SDS011;12054;53.662;10.126;2024-01-06T08:18:57;11.73;;;7.03;;
23747;SDS011;12054;53.662;10.126;2024-01-06T08:21:22;10.95;;;6.45;;
23747;SDS011;12054;53.662;10.126;2024-01-06T08:23:48;12.52;;;6.75;;
23747;SDS011;12054;53.662;10.126;2024-01-06T08:26:13;14.82;;;7.57;;
23747;SDS011;12054;53.662;10.126;2024-01-06T08:28:39;13.82;;;8.20;;
23747;SDS011;12054;53.662;10.126;2024-01-06T08:31:04;12.13;;;6.20;;
23747;SDS011;12054;53.662;10.126;2024-01-06T08:33:30;12.38;;;7.13;;
23747;SDS011;12054;53.662;10.126;2024-01-06T08:35:55;8.88;;;4.70;;
23747;SDS011;12054;53.662;10.126;2024-01-06T08:38:21;9.65;;;5.47;;
23747;SDS011;12054;53.662;10.126;2024-01-06T08:40:47;8.05;;;5.35;;
23747;SDS011;12054;53.662;10.126;2024-01-06T08:43:15;10.57;;;5.55;;
23747;SDS011;12054;53.662;10.126;2024-01-06T08:45:40;9.25;;;5.78;;
23747;SDS011;12054;53.662;10.126;2024-01-06T08:48:06;10.82;;;5.43;;
23747;SDS011;12054;53.662;10.126;2024-01-06T08:50:32;8.75;;;5.43;;
23747;SDS011;12054;53.662;10.126;2024-01-06T08:52:58;11.25;;;6.07;;
23747;SDS011;12054;53.662;10.126;2024-01-06T08:55:23;11.98;;;6.90;;
23747;SDS011;12054;53.662;10.126;2024-01-06T08:57:49;12.02;;;6.97;;
23747;SDS011;12054;53.662;10.126;2024-01-06T09:00:15;8.93;;;6.03;;
23747;SDS011;12054;53.662;10.126;2024-01-06T09:02:41;13.85;;;7.45;;
23747;SDS011;12054;53.662;10.126;2024-01-06T09:05:06;13.20;;;7.18;;
23747;SDS011;12054;53.662;10.126;2024-01-06T09:07:32;11.90;;;6.85;;
23747;SDS011;12054;53.662;10.126;2024-01-06T09:09:57;10.80;;;6.28;;
23747;SDS011;12054;53.662;10.126;2024-01-06T09:12:23;10.48;;;5.90;;
23747;SDS011;12054;53.662;10.126;2024-01-06T09:14:48;11.07;;;6.35;;
23747;SDS011;12054;53.662;10.126;2024-01-06T09:17:14;12.43;;;6.88;;
23747;SDS011;12054;53.662;10.126;2024-01-06T09:19:40;13.02;;;6.80;;
23747;SDS011;12054;53.662;10.126;2024-01-06T09:22:05;14.63;;;6.80;;
23747;SDS011;12054;53.662;10.126;2024-01-06T09:24:31;13.32;;;7.07;;
23747;SDS011;12054;53.662;10.126;2024-01-06T09:26:56;14.43;;;7.10;;
23747;SDS011;12054;53.662;10.126;2024-01-06T09:29:22;10.40;;;5.72;;
23747;SDS011;12054;53.662;10.126;2024-01-06T09:31:47;13.30;;;7.32;;
23747;SDS011;12054;53.662;10.126;2024-01-06T09:34:13;18.50;;;8.30;;
23747;SDS011;12054;53.662;10.126;2024-01-06T09:36:38;9.55;;;4.75;;
23747;SDS011;12054;53.662;10.126;2024-01-06T09:39:04;12.20;;;6.15;;
23747;SDS011;12054;53.662;10.126;2024-01-06T09:41:30;15.80;;;7.43;;
23747;SDS011;12054;53.662;10.126;2024-01-06T09:43:56;16.17;;;8.10;;
23747;SDS011;12054;53.662;10.126;2024-01-06T09:46:26;12.55;;;7.10;;
23747;SDS011;12054;53.662;10.126;2024-01-06T09:48:54;13.82;;;6.43;;
23747;SDS011;12054;53.662;10.126;2024-01-06T09:51:20;16.88;;;7.80;;
23747;SDS011;12054;53.662;10.126;2024-01-06T09:54:00;11.77;;;6.68;;
23747;SDS011;12054;53.662;10.126;2024-01-06T09:56:27;14.95;;;7.43;;
23747;SDS011;12054;53.662;10.126;2024-01-06T09:58:54;11.70;;;6.20;;
23747;SDS011;12054;53.662;10.126;2024-01-06T10:01:20;14.50;;;7.20;;
23747;SDS011;12054;53.662;10.126;2024-01-06T10:03:46;10.90;;;7.05;;
23747;SDS011;12054;53.662;10.126;2024-01-06T10:06:15;10.35;;;6.30;;
23747;SDS011;12054;53.662;10.126;2024-01-06T10:08:47;11.15;;;6.40;;
23747;SDS011;12054;53.662;10.126;2024-01-06T10:11:13;13.18;;;6.97;;
23747;SDS011;12054;53.662;10.126;2024-01-06T10:13:39;14.63;;;8.02;;
23747;SDS011;12054;53.662;10.126;2024-01-06T10:16:05;13.77;;;6.30;;
23747;SDS011;12054;53.662;10.126;2024-01-06T10:18:31;15.30;;;7.93;;
23747;SDS011;12054;53.662;10.126;2024-01-06T10:20:57;11.75;;;6.35;;
23747;SDS011;12054;53.662;10.126;2024-01-06T10:23:23;10.48;;;5.28;;
23747;SDS011;12054;53.662;10.126;2024-01-06T10:25:55;13.63;;;7.18;;
23747;SDS011;12054;53.662;10.126;2024-01-06T10:28:21;12.32;;;6.65;;
23747;SDS011;12054;53.662;10.126;2024-01-06T10:30:51;10.20;;;6.10;;
23747;SDS011;12054;53.662;10.126;2024-01-06T10:33:18;12.30;;;6.65;;
23747;SDS011;12054;53.662;10.126;2024-01-06T10:35:45;12.80;;;6.50;;
23747;SDS011;12054;53.662;10.126;2024-01-06T10:38:11;7.88;;;4.82;;
23747;SDS011;12054;53.662;10.126;2024-01-06T10:40:37;9.80;;;5.03;;
23747;SDS011;12054;53.662;10.126;2024-01-06T10:43:03;8.40;;;4.57;;
23747;SDS011;12054;53.662;10.126;2024-01-06T10:45:30;12.82;;;5.63;;
23747;SDS011;12054;53.662;10.126;2024-01-06T10:47:55;13.10;;;5.88;;
23747;SDS011;12054;53.662;10.126;2024-01-06T10:50:22;10.70;;;5.38;;
23747;SDS011;12054;53.662;10.126;2024-01-06T10:52:48;6.78;;;4.35;;
23747;SDS011;12054;53.662;10.126;2024-01-06T10:55:15;11.48;;;5.55;;
23747;SDS011;12054;53.662;10.126;2024-01-06T10:57:43;6.80;;;3.72;;
23747;SDS011;12054;53.662;10.126;2024-01-06T11:00:10;8.25;;;5.43;;
23747;SDS011;12054;53.662;10.126;2024-01-06T11:02:36;7.28;;;4.80;;
23747;SDS011;12054;53.662;10.126;2024-01-06T11:05:03;8.75;;;5.25;;
23747;SDS011;12054;53.662;10.126;2024-01-06T11:07:32;9.27;;;4.85;;
23747;SDS011;12054;53.662;10.126;2024-01-06T11:10:21;9.02;;;5.43;;
23747;SDS011;12054;53.662;10.126;2024-01-06T11:13:05;10.63;;;5.40;;
23747;SDS011;12054;53.662;10.126;2024-01-06T11:15:39;11.30;;;5.57;;
23747;SDS011;12054;53.662;10.126;2024-01-06T11:18:05;10.07;;;5.55;;
23747;SDS011;12054;53.662;10.126;2024-01-06T11:20:30;9.60;;;5.38;;
23747;SDS011;12054;53.662;10.126;2024-01-06T11:22:57;8.40;;;4.53;;
23747;SDS011;12054;53.662;10.126;2024-01-06T11:25:43;9.07;;;4.78;;
23747;SDS011;12054;53.662;10.126;2024-01-06T11:28:08;9.57;;;5.28;;
23747;SDS011;12054;53.662;10.126;2024-01-06T11:30:37;7.55;;;4.75;;
23747;SDS011;12054;53.662;10.126;2024-01-06T11:33:04;10.23;;;5.00;;
23747;SDS011;12054;53.662;10.126;2024-01-06T11:35:30;7.03;;;4.35;;
23747;SDS011;12054;53.662;10.126;2024-01-06T11:37:56;8.13;;;5.03;;
23747;SDS011;12054;53.662;10.126;2024-01-06T11:40:30;8.77;;;4.97;;
23747;SDS011;12054;53.662;10.126;2024-01-06T11:43:04;5.18;;;3.05;;
23747;SDS011;12054;53.662;10.126;2024-01-06T11:45:35;6.97;;;4.15;;
23747;SDS011;12054;53.662;10.126;2024-01-06T11:48:03;8.75;;;4.22;;
23747;SDS011;12054;53.662;10.126;2024-01-06T11:50:30;5.05;;;3.15;;
23747;SDS011;12054;53.662;10.126;2024-01-06T11:52:57;5.95;;;3.28;;
23747;SDS011;12054;53.662;10.126;2024-01-06T11:55:24;7.22;;;3.50;;
23747;SDS011;12054;53.662;10.126;2024-01-06T11:57:53;4.90;;;2.97;;
23747;SDS011;12054;53.662;10.126;2024-01-06T12:00:22;4.50;;;2.90;;
23747;SDS011;12054;53.662;10.126;2024-01-06T12:02:48;3.95;;;2.83;;
23747;SDS011;12054;53.662;10.126;2024-01-06T12:05:15;6.03;;;3.72;;
23747;SDS011;12054;53.662;10.126;2024-01-06T12:07:42;5.25;;;3.35;;
23747;SDS011;12054;53.662;10.126;2024-01-06T12:10:17;7.63;;;4.20;;
23747;SDS011;12054;53.662;10.126;2024-01-06T12:12:54;7.72;;;4.32;;
23747;SDS011;12054;53.662;10.126;2024-01-06T12:15:30;4.65;;;3.05;;
23747;SDS011;12054;53.662;10.126;2024-01-06T12:17:56;8.38;;;2.88;;
23747;SDS011;12054;53.662;10.126;2024-01-06T12:20:22;7.07;;;3.50;;
23747;SDS011;12054;53.662;10.126;2024-01-06T12:22:52;5.90;;;3.50;;
23747;SDS011;12054;53.662;10.126;2024-01-06T12:25:24;4.22;;;2.72;;
23747;SDS011;12054;53.662;10.126;2024-01-06T12:27:50;5.10;;;2.67;;
23747;SDS011;12054;53.662;10.126;2024-01-06T12:30:18;4.95;;;2.95;;
23747;SDS011;12054;53.662;10.126;2024-01-06T12:32:45;6.55;;;3.80;;
23747;SDS011;12054;53.662;10.126;2024-01-06T12:35:12;4.93;;;2.90;;
23747;SDS011;12054;53.662;10.126;2024-01-06T12:37:38;6.05;;;3.38;;
23747;SDS011;12054;53.662;10.126;2024-01-06T12:40:04;3.95;;;2.53;;
23747;SDS011;12054;53.662;10.126;2024-01-06T12:42:30;6.30;;;3.80;;
23747;SDS011;12054;53.662;10.126;2024-01-06T12:45:08;6.55;;;3.22;;
23747;SDS011;12054;53.662;10.126;2024-01-06T12:47:35;4.90;;;2.88;;
23747;SDS011;12054;53.662;10.126;2024-01-06T12:50:00;5.43;;;2.92;;
23747;SDS011;12054;53.662;10.126;2024-01-06T12:52:26;6.60;;;3.40;;
23747;SDS011;12054;53.662;10.126;2024-01-06T12:54:52;6.32;;;3.35;;
23747;SDS011;12054;53.662;10.126;2024-01-06T12:57:17;4.85;;;3.17;;
23747;SDS011;12054;53.662;10.126;2024-01-06T12:59:46;6.05;;;3.55;;
23747;SDS011;12054;53.662;10.126;2024-01-06T13:02:29;5.47;;;3.42;;
23747;SDS011;12054;53.662;10.126;2024-01-06T13:04:54;6.63;;;3.85;;
23747;SDS011;12054;53.662;10.126;2024-01-06T13:07:20;5.60;;;3.95;;
23747;SDS011;12054;53.662;10.126;2024-01-06T13:09:47;4.15;;;2.55;;
23747;SDS011;12054;53.662;10.126;2024-01-06T13:12:13;4.18;;;3.05;;
23747;SDS011;12054;53.662;10.126;2024-01-06T13:14:39;4.63;;;2.75;;
23747;SDS011;12054;53.662;10.126;2024-01-06T13:17:04;5.95;;;3.33;;
23747;SDS011;12054;53.662;10.126;2024-01-06T13:19:31;4.35;;;3.05;;
23747;SDS011;12054;53.662;10.126;2024-01-06T13:21:56;5.25;;;2.95;;
23747;SDS011;12054;53.662;10.126;2024-01-06T13:24:22;6.03;;;3.40;;
23747;SDS011;12054;53.662;10.126;2024-01-06T13:26:51;7.03;;;3.70;;
23747;SDS011;12054;53.662;10.126;2024-01-06T13:29:19;3.13;;;2.30;;
23747;SDS011;12054;53.662;10.126;2024-01-06T13:31:45;4.97;;;2.72;;
23747;SDS011;12054;53.662;10.126;2024-01-06T13:34:10;4.00;;;2.60;;
23747;SDS011;12054;53.662;10.126;2024-01-06T13:36:36;6.43;;;2.47;;
23747;SDS011;12054;53.662;10.126;2024-01-06T13:39:01;3.88;;;2.60;;
23747;SDS011;12054;53.662;10.126;2024-01-06T13:41:29;5.53;;;3.67;;
23747;SDS011;12054;53.662;10.126;2024-01-06T13:43:55;4.30;;;2.92;;
23747;SDS011;12054;53.662;10.126;2024-01-06T13:46:21;4.60;;;3.03;;
23747;SDS011;12054;53.662;10.126;2024-01-06T13:49:08;5.38;;;3.22;;
23747;SDS011;12054;53.662;10.126;2024-01-06T13:51:40;5.57;;;3.28;;
23747;SDS011;12054;53.662;10.126;2024-01-06T13:54:05;9.00;;;3.70;;
23747;SDS011;12054;53.662;10.126;2024-01-06T13:56:31;5.22;;;3.17;;
23747;SDS011;12054;53.662;10.126;2024-01-06T13:59:04;3.22;;;2.47;;
23747;SDS011;12054;53.662;10.126;2024-01-06T14:01:30;4.85;;;3.00;;
23747;SDS011;12054;53.662;10.126;2024-01-06T14:04:02;6.75;;;3.80;;
23747;SDS011;12054;53.662;10.126;2024-01-06T14:06:35;5.88;;;2.38;;
23747;SDS011;12054;53.662;10.126;2024-01-06T14:12:19;4.57;;;3.20;;
23747;SDS011;12054;53.662;10.126;2024-01-06T14:14:44;6.10;;;3.65;;
23747;SDS011;12054;53.662;10.126;2024-01-06T14:17:15;4.93;;;3.15;;
23747;SDS011;12054;53.662;10.126;2024-01-06T14:19:40;6.63;;;3.40;;
23747;SDS011;12054;53.662;10.126;2024-01-06T14:22:07;8.50;;;4.47;;
23747;SDS011;12054;53.662;10.126;2024-01-06T14:24:32;8.95;;;3.40;;
23747;SDS011;12054;53.662;10.126;2024-01-06T14:26:58;6.82;;;4.20;;